Time;durP1;ratioP1;P1;durP2;ratioP2;P2;SDS_P1;SDS_P2;PMS_P1;PMS_P2;Temp;Humidity;BMP_temperature;BMP_pressure;BME280_temperature;BME280_humidity;BME280_pressure;Samples;Min_cycle;Max_cycle;Signal;HPM_P1;HPM_P2
2023/10/15 00:00:26;;;;;;;33.80;31.23;;;;;;;7.77;100.00;100920.91;5021000;28;20877;-44
2023/10/15 00:02:54;;;;;;;32.40;30.57;;;;;;;7.77;100.00;100920.91;5022804;28;20484;-41
2023/10/15 00:05:25;;;;;;;32.17;30.20;;;;;;;7.74;100.00;100924.75;5025351;28;20432;-41
2023/10/15 00:07:53;;;;;;;33.20;31.20;;;;;;;7.74;100.00;100906.16;5024286;28;20554;-42
2023/10/15 00:10:23;;;;;;;32.00;30.50;;;;;;;7.74;100.00;100913.31;5021028;28;20547;-39
2023/10/15 00:12:53;;;;;;;32.10;30.40;;;;;;;7.74;100.00;100916.78;5021898;28;20476;-39
2023/10/15 00:15:23;;;;;;;32.20;30.10;;;;;;;7.72;100.00;100908.19;5025423;28;20839;-39
2023/10/15 00:17:54;;;;;;;31.83;30.10;;;;;;;7.75;100.00;100901.69;5024711;28;20786;-43
2023/10/15 00:20:26;;;;;;;31.37;29.83;;;;;;;7.74;100.00;100882.28;5020994;28;20457;-41
2023/10/15 00:22:54;;;;;;;32.77;30.37;;;;;;;7.72;100.00;100884.28;5022279;28;20828;-39
2023/10/15 00:25:22;;;;;;;34.10;31.17;;;;;;;7.70;100.00;100893.44;5024725;28;20471;-41
2023/10/15 00:27:54;;;;;;;32.87;30.57;;;;;;;7.74;100.00;100894.72;5024266;28;20472;-39
2023/10/15 00:30:23;;;;;;;32.80;30.90;;;;;;;7.75;100.00;100897.22;5020924;28;20464;-40
2023/10/15 00:32:52;;;;;;;33.33;30.63;;;;;;;7.72;100.00;100899.38;5021102;28;20464;-39
2023/10/15 00:35:21;;;;;;;32.63;31.00;;;;;;;7.66;100.00;100890.28;5024585;28;20463;-39
2023/10/15 00:37:54;;;;;;;31.40;29.77;;;;;;;7.58;100.00;100898.31;5024252;28;20853;-39
2023/10/15 00:40:24;;;;;;;33.53;31.40;;;;;;;7.47;100.00;100900.50;5020524;28;20457;-41
2023/10/15 00:42:52;;;;;;;33.00;30.80;;;;;;;7.40;100.00;100899.53;5021358;28;20453;-42
2023/10/15 00:45:21;;;;;;;33.00;31.03;;;;;;;7.33;100.00;100901.22;5024418;28;20491;-41
2023/10/15 00:48:00;;;;;;;32.80;30.23;;;;;;;7.23;100.00;100902.25;5024181;28;20562;-40
2023/10/15 00:50:35;;;;;;;31.37;29.50;;;;;;;7.14;100.00;100907.75;5020193;28;20464;-41
2023/10/15 00:53:21;;;;;;;31.63;29.40;;;;;;;7.16;100.00;100922.50;5022826;28;20802;-40
2023/10/15 00:55:51;;;;;;;32.50;30.50;;;;;;;7.17;100.00;100921.50;5024312;28;20432;-38
2023/10/15 00:58:31;;;;;;;31.37;29.50;;;;;;;7.16;100.00;100921.69;5024761;28;20827;-39
2023/10/15 01:01:13;;;;;;;31.83;29.67;;;;;;;7.15;100.00;100928.78;5022171;28;20456;-40
2023/10/15 01:03:48;;;;;;;32.63;30.20;;;;;;;7.17;100.00;100926.78;5020763;28;20433;-42
2023/10/15 01:06:20;;;;;;;27.20;25.43;;;;;;;7.13;100.00;100928.16;5020756;28;20443;-39
2023/10/15 01:08:49;;;;;;;30.37;27.77;;;;;;;7.32;100.00;100928.75;5020750;28;20433;-38
2023/10/15 01:11:18;;;;;;;35.07;32.83;;;;;;;7.45;100.00;100931.69;5019925;28;20592;-39
2023/10/15 01:13:46;;;;;;;33.10;30.30;;;;;;;7.46;100.00;100926.22;5020691;28;20440;-42
2023/10/15 01:16:17;;;;;;;33.17;31.30;;;;;;;7.49;100.00;100917.09;5023655;28;20464;-39
2023/10/15 01:18:55;;;;;;;33.33;31.10;;;;;;;7.50;100.00;100908.09;5024049;28;20463;-42
2023/10/15 01:21:29;;;;;;;33.70;31.60;;;;;;;7.45;100.00;100910.47;5023067;28;20880;-38
2023/10/15 01:24:04;;;;;;;33.03;30.30;;;;;;;7.43;100.00;100909.81;5023177;28;20428;-38
2023/10/15 01:26:36;;;;;;;35.43;32.43;;;;;;;7.34;100.00;100913.50;5021659;28;20483;-41
2023/10/15 01:29:06;;;;;;;32.67;30.40;;;;;;;7.29;100.00;100921.94;5021554;28;20429;-41
2023/10/15 01:31:41;;;;;;;32.43;30.63;;;;;;;7.29;100.00;100939.72;5023334;28;20453;-39
2023/10/15 01:34:10;;;;;;;31.57;29.40;;;;;;;7.31;100.00;100937.72;5021167;28;20447;-38
2023/10/15 01:36:39;;;;;;;33.30;31.10;;;;;;;7.35;100.00;100925.78;5020238;28;20960;-38
2023/10/15 01:39:12;;;;;;;32.27;30.17;;;;;;;7.37;100.00;100921.94;5021744;28;20864;-38
2023/10/15 01:41:42;;;;;;;32.77;30.23;;;;;;;7.37;100.00;100923.75;5023461;28;20827;-42
2023/10/15 01:44:10;;;;;;;32.20;29.90;;;;;;;7.40;100.00;100905.69;5021124;28;20436;-40
2023/10/15 01:46:48;;;;;;;31.50;29.20;;;;;;;7.39;100.00;100893.41;5020097;28;20812;-42
2023/10/15 01:49:31;;;;;;;32.27;30.47;;;;;;;7.43;100.00;100909.81;5022675;28;20875;-39
2023/10/15 01:52:05;;;;;;;32.27;29.97;;;;;;;7.47;100.00;100914.59;5022409;28;20458;-39
2023/10/15 01:54:34;;;;;;;33.83;31.43;;;;;;;7.59;100.00;100901.75;5020252;28;20429;-39
2023/10/15 01:57:06;;;;;;;33.87;31.60;;;;;;;7.66;100.00;100897.44;5021029;28;20480;-38
2023/10/15 01:59:44;;;;;;;32.40;30.30;;;;;;;7.68;100.00;100890.94;5022275;28;20452;-38
2023/10/15 02:02:13;;;;;;;32.37;30.67;;;;;;;7.63;100.00;100897.78;5020779;28;20894;-39
2023/10/15 02:04:45;;;;;;;31.83;29.90;;;;;;;7.59;100.00;100915.03;5020029;28;20550;-40
2023/10/15 02:07:16;;;;;;;31.80;29.70;;;;;;;7.57;100.00;100915.22;5022483;28;20480;-39
2023/10/15 02:09:44;;;;;;;32.80;30.93;;;;;;;7.56;100.00;100913.56;5022405;28;20522;-39
2023/10/15 02:12:17;;;;;;;32.90;30.80;;;;;;;7.55;100.00;100905.78;5020664;28;20448;-38
2023/10/15 02:14:47;;;;;;;33.40;31.53;;;;;;;7.53;100.00;100891.84;5019978;28;20437;-38
2023/10/15 02:17:18;;;;;;;32.00;30.30;;;;;;;7.56;100.00;100908.25;5022637;28;20435;-42
2023/10/15 02:19:47;;;;;;;32.47;30.73;;;;;;;7.59;100.00;100907.91;5022648;28;20464;-40
2023/10/15 02:22:16;;;;;;;32.90;31.30;;;;;;;7.62;100.00;100910.22;5020131;28;21221;-43
2023/10/15 02:24:47;;;;;;;33.07;30.83;;;;;;;7.63;100.00;100914.53;5019657;28;20525;-40
2023/10/15 02:27:23;;;;;;;34.73;31.87;;;;;;;7.63;100.00;100922.50;5022376;28;20475;-43
2023/10/15 02:29:50;;;;;;;33.60;31.77;;;;;;;7.60;100.00;100928.16;5022376;28;20452;-41
2023/10/15 02:32:31;;;;;;;33.83;31.80;;;;;;;7.59;100.00;100928.31;5022792;28;21018;-38
2023/10/15 02:34:59;;;;;;;33.90;31.40;;;;;;;7.58;100.00;100908.09;5022340;28;20443;-42
2023/10/15 02:37:27;;;;;;;33.20;31.27;;;;;;;7.56;100.00;100918.88;5019843;28;20433;-38
2023/10/15 02:39:58;;;;;;;35.83;33.13;;;;;;;7.58;100.00;100924.84;5018763;28;20456;-44
2023/10/15 02:42:33;;;;;;;33.40;31.50;;;;;;;7.58;100.00;100924.84;5022832;28;20825;-38
2023/10/15 02:45:01;;;;;;;36.47;33.80;;;;;;;7.58;100.00;100916.88;5021991;28;20475;-38
2023/10/15 02:47:31;;;;;;;32.67;30.87;;;;;;;7.57;100.00;100922.34;5019491;28;20479;-40
2023/10/15 02:50:02;;;;;;;34.37;32.30;;;;;;;7.56;100.00;100933.94;5018994;28;20456;-39
2023/10/15 02:52:43;;;;;;;33.63;31.70;;;;;;;7.52;100.00;100930.84;5022719;28;20983;-40
2023/10/15 02:55:26;;;;;;;34.57;32.33;;;;;;;7.52;100.00;100930.00;5019837;28;20441;-43
2023/10/15 02:58:00;;;;;;;32.50;30.20;;;;;;;7.51;100.00;100923.88;5019662;28;20425;-38
2023/10/15 03:00:31;;;;;;;32.57;30.53;;;;;;;7.51;100.00;100921.22;5018716;28;20457;-39
2023/10/15 03:03:06;;;;;;;32.67;30.10;;;;;;;7.49;100.00;100931.19;5019361;28;20548;-39
2023/10/15 03:05:39;;;;;;;32.33;30.30;;;;;;;7.48;100.00;100926.03;5022603;28;20432;-40
2023/10/15 03:08:07;;;;;;;33.00;30.57;;;;;;;7.46;100.00;100926.22;5021048;28;20567;-42
2023/10/15 03:10:46;;;;;;;34.20;31.20;;;;;;;7.43;100.00;100933.69;5018521;28;20471;-38
2023/10/15 03:13:16;;;;;;;34.30;31.80;;;;;;;7.40;100.00;100932.22;5025046;28;20464;-40
2023/10/15 03:15:48;;;;;;;34.63;31.63;;;;;;;7.39;100.00;100930.53;5025940;28;20436;-39
2023/10/15 03:18:22;;;;;;;34.60;32.00;;;;;;;7.40;100.00;100939.34;5023374;28;20502;-39
2023/10/15 03:20:50;;;;;;;34.73;31.60;;;;;;;7.39;100.00;100932.38;5022100;28;20463;-38
2023/10/15 03:23:17;;;;;;;34.07;31.37;;;;;;;7.38;100.00;100928.09;5025344;28;20467;-41
2023/10/15 03:25:48;;;;;;;33.60;30.80;;;;;;;7.42;100.00;100934.69;5025950;28;20460;-39
2023/10/15 03:28:18;;;;;;;33.00;31.10;;;;;;;7.43;100.00;100933.69;5023200;28;20472;-40
2023/10/15 03:30:45;;;;;;;33.47;31.33;;;;;;;7.48;100.00;100932.19;5021757;28;20543;-38
2023/10/15 03:33:13;;;;;;;34.60;31.97;;;;;;;7.52;100.00;100932.66;5024477;28;20548;-39
2023/10/15 03:35:45;;;;;;;32.77;30.97;;;;;;;7.54;100.00;100931.50;5028306;28;20852;-40
2023/10/15 03:38:15;;;;;;;34.50;31.50;;;;;;;7.51;100.00;100909.78;5024216;28;20468;-40
2023/10/15 03:40:50;;;;;;;34.57;32.13;;;;;;;7.48;100.00;100926.88;5024887;28;20460;-41
2023/10/15 03:43:21;;;;;;;35.23;32.13;;;;;;;7.48;100.00;100931.34;5022924;28;20947;-40
2023/10/15 03:45:52;;;;;;;34.73;32.20;;;;;;;7.48;100.00;100947.25;5022547;28;20868;-39
2023/10/15 03:48:21;;;;;;;35.40;33.17;;;;;;;7.47;100.00;100948.25;5024935;28;20464;-40
2023/10/15 03:50:55;;;;;;;33.50;31.37;;;;;;;7.45;100.00;100942.28;5024722;28;20456;-39
2023/10/15 03:53:27;;;;;;;33.93;31.73;;;;;;;7.42;100.00;100954.09;5022057;28;20452;-38
2023/10/15 03:55:56;;;;;;;34.00;31.80;;;;;;;7.37;100.00;100945.81;5022038;28;20520;-42
2023/10/15 03:58:26;;;;;;;33.33;30.97;;;;;;;7.29;100.00;100952.97;5021829;28;20450;-41
2023/10/15 04:01:02;;;;;;;34.60;32.20;;;;;;;7.22;100.00;100952.81;5021210;28;20483;-39
2023/10/15 04:03:29;;;;;;;33.67;31.27;;;;;;;7.17;100.00;100958.63;5022020;28;20437;-38
2023/10/15 04:06:00;;;;;;;35.83;32.90;;;;;;;7.13;100.00;100954.66;5021898;28;20801;-40
2023/10/15 04:08:31;;;;;;;34.27;31.97;;;;;;;7.11;100.00;100948.69;5021868;28;21153;-41
2023/10/15 04:10:58;;;;;;;34.37;32.33;;;;;;;7.09;100.00;100942.72;5021265;28;20508;-38
2023/10/15 04:13:28;;;;;;;34.73;31.20;;;;;;;7.09;100.00;100947.22;5021727;28;20433;-40
2023/10/15 04:15:56;;;;;;;33.53;31.13;;;;;;;7.13;100.00;100943.22;5021442;28;20545;-38
2023/10/15 04:18:25;;;;;;;33.97;31.20;;;;;;;7.14;100.00;100948.34;5024565;28;20424;-41
2023/10/15 04:20:54;;;;;;;34.60;31.70;;;;;;;7.18;100.00;100944.38;5024070;28;20458;-39
2023/10/15 04:23:31;;;;;;;32.93;31.03;;;;;;;7.24;100.00;100949.00;5021395;28;20430;-39
2023/10/15 04:26:02;;;;;;;35.23;32.57;;;;;;;7.25;100.00;100939.22;5021488;28;20503;-38
2023/10/15 04:28:33;;;;;;;33.73;31.70;;;;;;;7.26;100.00;100945.38;5021250;28;20556;-39
2023/10/15 04:31:01;;;;;;;34.50;31.90;;;;;;;7.30;100.00;100938.69;5020244;28;20460;-40
2023/10/15 04:33:30;;;;;;;32.77;30.80;;;;;;;7.32;100.00;100937.53;5024482;28;20805;-39
2023/10/15 04:35:59;;;;;;;33.40;31.40;;;;;;;7.34;100.00;100940.03;5024859;28;20515;-39
2023/10/15 04:38:28;;;;;;;34.40;32.40;;;;;;;7.33;100.00;100936.53;5024816;28;20431;-38
2023/10/15 04:41:03;;;;;;;34.13;31.90;;;;;;;7.32;100.00;100950.00;5023738;28;20464;-38
2023/10/15 04:43:41;;;;;;;33.90;31.20;;;;;;;7.26;100.00;100950.66;5024202;28;20436;-40
2023/10/15 04:46:17;;;;;;;35.27;32.90;;;;;;;7.21;100.00;100945.84;5023548;28;20494;-40
2023/10/15 04:48:45;;;;;;;34.37;32.47;;;;;;;7.17;100.00;100947.19;5020848;28;20483;-40
2023/10/15 04:51:13;;;;;;;35.10;33.40;;;;;;;7.11;100.00;100950.50;5021609;28;20493;-39
2023/10/15 04:53:44;;;;;;;34.97;32.47;;;;;;;7.06;100.00;100952.84;5024293;28;20471;-39
2023/10/15 04:56:12;;;;;;;32.70;31.00;;;;;;;7.02;100.00;100949.69;5022780;28;20432;-41
2023/10/15 04:58:41;;;;;;;33.57;31.47;;;;;;;6.99;100.00;100954.53;5020903;28;20429;-43
2023/10/15 05:01:10;;;;;;;34.90;32.03;;;;;;;6.93;100.00;100948.06;5020106;28;20457;-45
2023/10/15 05:03:38;;;;;;;33.00;31.13;;;;;;;6.91;100.00;100944.75;5020733;28;21107;-39
2023/10/15 05:06:10;;;;;;;33.80;31.70;;;;;;;6.92;100.00;100953.53;5021143;28;20437;-41
2023/10/15 05:08:40;;;;;;;34.40;31.40;;;;;;;6.91;100.00;100951.88;5023834;28;20432;-39
2023/10/15 05:11:09;;;;;;;34.93;32.57;;;;;;;6.91;100.00;100951.88;5022375;28;20469;-39
2023/10/15 05:13:37;;;;;;;34.07;31.77;;;;;;;6.89;100.00;100949.41;5017709;28;20445;-41
2023/10/15 05:16:06;;;;;;;33.80;31.20;;;;;;;6.90;100.00;100952.88;5020466;28;20439;-39
2023/10/15 05:18:34;;;;;;;31.67;29.67;;;;;;;6.94;100.00;100959.50;5023878;28;20424;-38
2023/10/15 05:21:01;;;;;;;32.70;30.23;;;;;;;6.97;100.00;100957.34;5022956;28;20456;-41
2023/10/15 05:23:29;;;;;;;33.73;31.20;;;;;;;6.98;100.00;100963.47;5020368;28;20442;-42
2023/10/15 05:25:57;;;;;;;31.87;30.10;;;;;;;6.99;100.00;100965.13;5020647;28;20854;-38
2023/10/15 05:28:26;;;;;;;33.97;31.10;;;;;;;6.98;100.00;100966.97;5023211;28;20456;-41
2023/10/15 05:30:57;;;;;;;33.07;31.20;;;;;;;6.97;100.00;100967.94;5022832;28;20487;-39
2023/10/15 05:33:27;;;;;;;33.23;31.03;;;;;;;6.93;100.00;100963.97;5019974;28;20433;-38
2023/10/15 05:35:56;;;;;;;33.13;30.23;;;;;;;6.92;100.00;100967.63;5018323;28;20490;-39
2023/10/15 05:38:26;;;;;;;33.97;31.47;;;;;;;6.89;100.00;100964.47;5020837;28;20438;-42
2023/10/15 05:40:58;;;;;;;34.20;31.77;;;;;;;6.87;100.00;100969.13;5019141;28;20463;-41
2023/10/15 05:43:26;;;;;;;35.47;32.40;;;;;;;6.84;100.00;100974.75;5023140;28;20805;-38
2023/10/15 05:45:54;;;;;;;34.80;32.13;;;;;;;6.84;100.00;100985.38;5023245;28;20527;-38
2023/10/15 05:48:22;;;;;;;34.27;31.53;;;;;;;6.85;100.00;100974.59;5020757;28;20437;-41
2023/10/15 05:50:51;;;;;;;36.00;33.50;;;;;;;6.89;100.00;100980.38;5019303;28;20485;-38
2023/10/15 05:53:19;;;;;;;33.43;31.30;;;;;;;6.91;100.00;100984.53;5021707;28;20437;-39
2023/10/15 05:55:47;;;;;;;32.47;30.47;;;;;;;6.93;100.00;100985.16;5023352;28;20436;-40
2023/10/15 05:58:14;;;;;;;34.50;31.30;;;;;;;6.92;100.00;100988.84;5022180;28;21052;-38
2023/10/15 06:00:42;;;;;;;34.23;31.77;;;;;;;6.97;100.00;101002.41;5018827;28;20465;-38
2023/10/15 06:03:10;;;;;;;34.23;31.93;;;;;;;6.99;100.00;101002.25;5020682;28;21043;-39
2023/10/15 06:05:39;;;;;;;32.67;30.73;;;;;;;7.02;100.00;100992.13;5023463;28;20547;-39
2023/10/15 06:08:08;;;;;;;33.77;31.37;;;;;;;7.05;100.00;101002.41;5023311;28;20433;-38
2023/10/15 06:10:36;;;;;;;34.30;31.57;;;;;;;7.09;100.00;101003.72;5019142;28;20988;-43
2023/10/15 06:13:04;;;;;;;35.10;32.17;;;;;;;7.10;100.00;100999.25;5019777;28;20460;-39
2023/10/15 06:15:32;;;;;;;34.20;30.80;;;;;;;7.11;100.00;100993.78;5020126;28;20862;-42
2023/10/15 06:17:59;;;;;;;33.60;31.00;;;;;;;7.20;100.00;101002.53;5019837;28;20866;-40
2023/10/15 06:20:28;;;;;;;34.40;31.90;;;;;;;7.30;100.00;101003.19;5021674;28;20491;-40
2023/10/15 06:22:56;;;;;;;33.83;30.60;;;;;;;7.41;100.00;101007.31;5022603;28;20966;-41
2023/10/15 06:25:26;;;;;;;34.10;31.57;;;;;;;7.50;100.00;101007.13;5020289;28;20928;-39
2023/10/15 06:27:54;;;;;;;34.13;31.60;;;;;;;7.62;100.00;101012.88;5019406;28;20475;-39
2023/10/15 06:30:22;;;;;;;33.37;31.20;;;;;;;7.71;100.00;101025.13;5020321;28;21035;-40
2023/10/15 06:32:52;;;;;;;33.67;30.97;;;;;;;7.76;100.00;101028.13;5022139;28;20448;-38
2023/10/15 06:35:22;;;;;;;32.43;30.33;;;;;;;7.85;100.00;101032.41;5020928;28;20522;-38
2023/10/15 06:37:51;;;;;;;33.73;31.47;;;;;;;7.91;100.00;101028.22;5019594;28;20488;-39
2023/10/15 06:40:19;;;;;;;32.73;30.33;;;;;;;7.94;100.00;101043.81;5020224;28;20464;-40
2023/10/15 06:42:59;;;;;;;33.40;31.57;;;;;;;8.07;100.00;101038.78;5023043;28;20543;-39
2023/10/15 06:45:27;;;;;;;33.90;31.67;;;;;;;8.18;100.00;101049.84;5021542;28;20523;-42
2023/10/15 06:47:55;;;;;;;34.27;31.43;;;;;;;8.31;100.00;101049.31;5029572;28;20853;-41
2023/10/15 06:50:23;;;;;;;31.87;30.10;;;;;;;8.40;100.00;101055.41;5023539;28;20506;-44
2023/10/15 06:52:54;;;;;;;33.43;31.20;;;;;;;8.45;100.00;101050.41;5022960;28;20444;-41
2023/10/15 06:55:23;;;;;;;34.47;31.80;;;;;;;8.49;100.00;101062.31;5022362;28;20456;-40
2023/10/15 06:57:53;;;;;;;30.40;28.80;;;;;;;8.53;100.00;101061.00;5021581;28;20437;-40
2023/10/15 07:00:24;;;;;;;33.20;30.60;;;;;;;8.66;100.00;101064.72;5023432;28;20459;-44
2023/10/15 07:02:53;;;;;;;33.97;31.17;;;;;;;8.79;100.00;101075.59;5022254;28;20514;-41
2023/10/15 07:05:23;;;;;;;33.53;31.57;;;;;;;9.00;100.00;101066.13;5023305;28;20433;-42
2023/10/15 07:07:51;;;;;;;32.83;30.10;;;;;;;9.06;100.00;101058.28;5025450;28;20437;-40
2023/10/15 07:10:21;;;;;;;31.70;29.60;;;;;;;9.33;100.00;101064.84;5022974;28;20487;-40
2023/10/15 07:12:50;;;;;;;31.00;28.90;;;;;;;9.67;100.00;101067.84;5026262;28;20875;-44
2023/10/15 07:15:21;;;;;;;31.20;29.20;;;;;;;9.79;100.00;101078.88;5023796;28;20438;-42
2023/10/15 07:17:50;;;;;;;31.33;29.17;;;;;;;9.86;100.00;101082.44;5021481;28;20460;-40
2023/10/15 07:20:21;;;;;;;32.63;30.53;;;;;;;9.96;100.00;101067.84;5022590;28;20461;-40
2023/10/15 07:22:49;;;;;;;31.33;29.00;;;;;;;10.07;100.00;101063.03;5025269;28;20460;-41
2023/10/15 07:25:19;;;;;;;31.93;29.93;;;;;;;10.24;100.00;101060.06;5023470;28;20443;-44
2023/10/15 07:27:48;;;;;;;32.83;30.43;;;;;;;10.32;100.00;101067.94;5021198;28;20519;-45
2023/10/15 07:30:20;;;;;;;28.87;27.20;;;;;;;10.34;100.00;101065.06;5022029;28;20476;-43
2023/10/15 07:32:50;;;;;;;30.27;28.07;;;;;;;10.38;100.00;101066.34;5025031;28;20456;-40
2023/10/15 07:35:18;;;;;;;30.17;28.47;;;;;;;10.45;100.00;101070.72;5023350;28;20494;-40
2023/10/15 07:37:49;;;;;;;29.37;27.77;;;;;;;10.35;100.00;101066.72;5020793;28;20491;-41
2023/10/15 07:40:18;;;;;;;27.13;25.33;;;;;;;10.41;100.00;101071.31;5021875;28;20876;-39
2023/10/15 07:42:48;;;;;;;28.00;25.83;;;;;;;10.44;100.00;101070.94;5024904;28;20975;-41
2023/10/15 07:45:17;;;;;;;24.47;22.73;;;;;;;10.57;100.00;101078.25;5023620;28;20448;-41
2023/10/15 07:47:47;;;;;;;24.73;22.83;;;;;;;10.63;100.00;101083.69;5020970;28;20429;-39
2023/10/15 07:50:18;;;;;;;20.53;18.90;;;;;;;10.54;100.00;101082.13;5021221;28;20476;-42
2023/10/15 07:52:46;;;;;;;17.40;15.73;;;;;;;10.57;100.00;101087.91;5022975;28;20460;-41
2023/10/15 07:55:14;;;;;;;15.10;14.00;;;;;;;10.72;100.00;101079.06;5025649;28;20445;-39
2023/10/15 07:57:42;;;;;;;21.23;15.30;;;;;;;10.76;100.00;101091.81;5027564;28;20436;-40
2023/10/15 08:00:15;;;;;;;15.53;14.03;;;;;;;10.68;100.00;101089.25;5024009;28;20546;-41
2023/10/15 08:02:45;;;;;;;17.20;14.60;;;;;;;10.75;100.00;101098.16;5027970;28;20462;-43
2023/10/15 08:05:15;;;;;;;17.20;12.70;;;;;;;10.92;100.00;101107.59;5024022;28;21145;-43
2023/10/15 08:07:43;;;;;;;13.90;11.87;;;;;;;11.01;100.00;101114.44;5020637;28;20798;-40
2023/10/15 08:10:14;;;;;;;11.97;10.80;;;;;;;11.14;100.00;101112.94;5020434;28;20476;-42
2023/10/15 08:12:45;;;;;;;15.47;11.90;;;;;;;11.08;99.45;101112.66;5021277;28;20453;-40
2023/10/15 08:15:12;;;;;;;13.97;11.07;;;;;;;11.30;100.00;101105.47;5021994;28;20483;-38
2023/10/15 08:17:40;;;;;;;16.30;11.20;;;;;;;11.28;100.00;101110.19;5024133;28;21017;-39
2023/10/15 08:20:09;;;;;;;18.57;11.10;;;;;;;11.34;100.00;101117.44;5020332;28;21130;-39
2023/10/15 08:22:40;;;;;;;19.63;12.30;;;;;;;11.53;100.00;101119.41;5020785;28;20481;-41
2023/10/15 08:25:13;;;;;;;14.37;11.00;;;;;;;11.40;100.00;101123.84;5020608;28;20429;-41
2023/10/15 08:27:41;;;;;;;12.37;11.30;;;;;;;11.47;100.00;101135.38;5020673;28;20455;-41
2023/10/15 08:30:12;;;;;;;12.37;11.07;;;;;;;11.26;100.00;101138.09;5019425;28;20509;-40
2023/10/15 08:32:40;;;;;;;15.60;11.17;;;;;;;11.04;100.00;101145.25;5024127;28;20464;-40
2023/10/15 08:35:09;;;;;;;15.10;12.47;;;;;;;10.92;100.00;101146.78;5023137;28;20437;-41
2023/10/15 08:37:39;;;;;;;12.60;11.33;;;;;;;10.86;100.00;101148.38;5020331;28;20518;-41
2023/10/15 08:40:08;;;;;;;12.97;11.60;;;;;;;10.96;100.00;101145.41;5019757;28;20463;-41
2023/10/15 08:42:39;;;;;;;16.80;11.83;;;;;;;11.01;100.00;101151.81;5023263;28;20451;-41
2023/10/15 08:45:09;;;;;;;14.13;12.63;;;;;;;10.92;100.00;101150.28;5022845;28;21031;-42
2023/10/15 08:47:37;;;;;;;16.00;11.83;;;;;;;10.99;100.00;101150.34;5024767;28;20429;-41
2023/10/15 08:50:10;;;;;;;15.73;12.47;;;;;;;11.01;100.00;101149.16;5019660;28;20585;-42
2023/10/15 08:52:40;;;;;;;13.83;12.40;;;;;;;11.20;100.00;101153.00;5023503;28;20475;-40
2023/10/15 08:55:09;;;;;;;14.80;12.53;;;;;;;11.18;100.00;101156.88;5023653;28;20439;-41
2023/10/15 08:57:38;;;;;;;15.17;12.27;;;;;;;11.21;100.00;101160.00;5020533;28;20533;-40
2023/10/15 09:00:25;;;;;;;17.97;11.80;;;;;;;11.39;100.00;101159.56;5018416;28;20523;-40
2023/10/15 09:03:01;;;;;;;15.20;11.10;;;;;;;11.48;100.00;101171.75;5020186;28;20540;-40
2023/10/15 09:05:33;;;;;;;14.40;13.10;;;;;;;11.48;100.00;101177.94;5022147;28;20457;-43
2023/10/15 09:08:06;;;;;;;12.20;11.00;;;;;;;11.49;100.00;101176.94;5023301;28;20998;-41
2023/10/15 09:10:36;;;;;;;14.47;12.90;;;;;;;11.43;100.00;101188.38;5019441;28;20464;-41
2023/10/15 09:13:04;;;;;;;13.83;12.63;;;;;;;11.27;100.00;101183.28;5019585;28;20457;-41
2023/10/15 09:15:32;;;;;;;13.30;12.13;;;;;;;11.02;100.00;101187.34;5022125;28;20461;-44
2023/10/15 09:18:00;;;;;;;14.00;12.57;;;;;;;10.96;100.00;101186.22;5023681;28;20436;-42
2023/10/15 09:20:32;;;;;;;16.27;11.80;;;;;;;11.19;100.00;101195.94;5021345;28;20490;-43
2023/10/15 09:23:02;;;;;;;18.83;11.63;;;;;;;11.03;100.00;101199.66;5020105;28;20465;-43
2023/10/15 09:25:31;;;;;;;12.33;10.93;;;;;;;11.52;100.00;101199.75;5022305;28;20804;-41
2023/10/15 09:27:59;;;;;;;16.20;11.60;;;;;;;11.62;100.00;101194.91;5023744;28;20437;-42
2023/10/15 09:30:30;;;;;;;12.80;10.13;;;;;;;11.88;100.00;101202.34;5018552;28;20461;-42
2023/10/15 09:32:58;;;;;;;12.80;11.37;;;;;;;12.21;100.00;101198.06;5020008;28;20992;-40
2023/10/15 09:35:26;;;;;;;13.33;11.43;;;;;;;12.27;100.00;101207.97;5021094;28;20448;-40
2023/10/15 09:37:57;;;;;;;10.07;9.47;;;;;;;12.08;100.00;101206.81;5023758;28;20519;-40
2023/10/15 09:40:30;;;;;;;21.33;9.23;;;;;;;11.96;100.00;101211.06;5016366;28;20461;-44
2023/10/15 09:42:59;;;;;;;11.20;9.60;;;;;;;11.46;100.00;101219.22;5022979;28;20535;-45
2023/10/15 09:45:30;;;;;;;14.30;10.37;;;;;;;11.29;100.00;101210.59;5021832;28;20456;-40
2023/10/15 09:47:58;;;;;;;13.93;10.47;;;;;;;11.39;100.00;101212.97;5019623;28;20865;-41
2023/10/15 09:50:27;;;;;;;11.37;10.27;;;;;;;11.64;100.00;101206.22;5020259;28;20831;-39
2023/10/15 09:52:57;;;;;;;15.13;10.40;;;;;;;12.01;100.00;101219.31;5022975;28;20570;-42
2023/10/15 09:55:27;;;;;;;12.27;10.10;;;;;;;11.78;100.00;101229.41;5023192;28;20425;-44
2023/10/15 09:57:57;;;;;;;10.63;9.80;;;;;;;11.83;100.00;101229.63;5023022;28;20438;-44
2023/10/15 10:00:47;;;;;;;10.53;9.63;;;;;;;12.19;100.00;101219.66;5020320;28;20455;-41
2023/10/15 10:03:47;;;;;;;9.73;8.63;;;;;;;12.31;100.00;101222.59;5019638;28;20453;-45
2023/10/15 10:06:30;;;;;;;9.70;8.67;;;;;;;12.82;100.00;101224.94;5019694;28;20520;-40
2023/10/15 10:09:16;;;;;;;11.10;8.53;;;;;;;12.33;100.00;101241.13;5019252;28;21039;-42
2023/10/15 10:12:00;;;;;;;8.97;8.13;;;;;;;12.21;100.00;101236.31;5019388;28;20551;-41
2023/10/15 10:14:50;;;;;;;9.43;8.60;;;;;;;12.09;100.00;101253.09;5020675;28;20432;-42
2023/10/15 10:17:21;;;;;;;12.20;10.03;;;;;;;11.73;100.00;101274.59;5023124;28;20516;-44
2023/10/15 10:19:52;;;;;;;11.50;10.60;;;;;;;11.46;100.00;101268.13;5019001;28;20485;-42
2023/10/15 10:22:20;;;;;;;11.53;10.43;;;;;;;10.92;100.00;101265.03;5023628;28;20453;-44
2023/10/15 10:24:48;;;;;;;23.53;22.53;;;;;;;10.34;100.00;101286.31;5026771;28;20436;-42
2023/10/15 10:27:17;;;;;;;22.90;21.53;;;;;;;10.25;100.00;101268.75;5026664;28;20861;-40
2023/10/15 10:29:51;;;;;;;20.90;19.80;;;;;;;9.97;100.00;101271.97;5022593;28;20492;-38
2023/10/15 10:32:20;;;;;;;21.43;20.17;;;;;;;10.12;100.00;101268.53;5023485;28;20565;-40
2023/10/15 10:35:15;;;;;;;20.60;19.57;;;;;;;10.36;100.00;101271.81;5022775;28;20464;-41
2023/10/15 10:38:01;;;;;;;20.90;19.50;;;;;;;10.78;100.00;101270.38;5026029;28;20432;-43
2023/10/15 10:40:49;;;;;;;21.47;19.77;;;;;;;11.34;100.00;101279.47;5021832;28;20459;-42
2023/10/15 10:43:21;;;;;;;22.00;20.40;;;;;;;11.85;100.00;101283.75;5023144;28;20523;-43
2023/10/15 10:45:55;;;;;;;18.80;17.40;;;;;;;11.93;100.00;101277.41;5022887;28;20499;-47
2023/10/15 10:48:24;;;;;;;15.77;15.00;;;;;;;11.66;100.00;101277.16;5023158;28;20432;-44
2023/10/15 10:51:18;;;;;;;15.47;14.50;;;;;;;11.34;100.00;101288.31;5025744;28;20462;-43
2023/10/15 10:54:25;;;;;;;14.17;13.37;;;;;;;11.13;100.00;101268.75;5026130;28;20472;-43
2023/10/15 10:57:02;;;;;;;16.10;15.10;;;;;;;11.03;100.00;101263.69;5026073;28;20494;-41
2023/10/15 10:59:31;;;;;;;15.03;14.33;;;;;;;10.81;100.00;101281.47;5024600;28;20526;-41
2023/10/15 11:02:00;;;;;;;43.13;41.60;;;;;;;10.02;100.00;101325.56;5022589;28;21285;-43
2023/10/15 11:04:27;;;;;;;168.63;162.90;;;;;;;9.38;100.00;101332.13;5023625;28;20902;-42
2023/10/15 11:06:55;;;;;;;93.67;90.23;;;;;;;8.95;100.00;101330.03;5026053;28;20535;-40
2023/10/15 11:09:23;;;;;;;41.73;40.13;;;;;;;8.89;100.00;101317.41;5025369;28;20519;-42
2023/10/15 11:11:53;;;;;;;37.13;35.60;;;;;;;9.09;100.00;101310.66;5022554;28;20456;-43
2023/10/15 11:14:23;;;;;;;27.73;26.83;;;;;;;9.34;100.00;101309.56;5022674;28;20429;-41
2023/10/15 11:16:54;;;;;;;27.20;26.20;;;;;;;9.72;100.00;101315.81;5022620;28;20433;-40
2023/10/15 11:19:24;;;;;;;26.10;25.00;;;;;;;10.16;100.00;101318.66;5022012;28;20476;-44
2023/10/15 11:21:53;;;;;;;24.00;23.10;;;;;;;10.59;100.00;101316.25;5025937;28;20456;-43
2023/10/15 11:24:24;;;;;;;23.57;22.67;;;;;;;10.79;100.00;101323.53;5026014;28;20430;-43